Time;durP1;ratioP1;P1;durP2;ratioP2;P2;SDS_P1;SDS_P2;PMS_P1;PMS_P2;Temp;Humidity;BMP_temperature;BMP_pressure;BME280_temperature;BME280_humidity;BME280_pressure;Samples;Min_cycle;Max_cycle;Signal;HPM_P1;HPM_P2
2023/01/07 00:02:19;;;;;;;3.43;2.93;;;9.30;84.30;;;8.99;73.76;98440.31;5094314;28;20455;-84
2023/01/07 00:04:49;;;;;;;3.50;3.20;;;9.30;84.40;;;9.00;74.74;98474.31;5090602;28;20445;-84
2023/01/07 00:07:19;;;;;;;4.87;4.33;;;9.20;84.20;;;8.58;75.13;98424.84;5081978;28;20468;-84
2023/01/07 00:09:46;;;;;;;3.90;3.50;;;9.20;84.60;;;8.94;74.71;98458.94;5059569;28;20452;-84
2023/01/07 00:12:14;;;;;;;3.70;3.40;;;9.20;84.70;;;8.70;74.13;98396.34;5092961;28;20451;-83
2023/01/07 00:14:43;;;;;;;3.50;3.20;;;9.20;84.70;;;8.69;74.10;98370.41;5094106;28;20460;-85
2023/01/07 00:17:12;;;;;;;4.10;3.70;;;9.30;84.50;;;9.31;73.85;98475.00;5091486;28;20447;-86
2023/01/07 00:19:42;;;;;;;4.10;3.80;;;9.30;84.70;;;8.74;73.89;98411.09;5090899;28;20946;-85
2023/01/07 00:22:11;;;;;;;4.20;3.80;;;9.30;84.40;;;9.29;74.59;98474.34;5075961;28;20450;-84
2023/01/07 00:24:38;;;;;;;4.27;3.57;;;9.30;84.60;;;9.01;74.80;98442.81;5096907;28;20452;-83
2023/01/07 00:27:05;;;;;;;3.90;3.50;;;9.20;84.90;;;9.11;74.70;98459.50;5097461;28;20540;-83
2023/01/07 00:29:33;;;;;;;4.03;3.67;;;9.20;84.90;;;9.24;74.14;98452.53;5076833;28;20486;-84
2023/01/07 00:32:00;;;;;;;4.60;4.20;;;9.30;84.90;;;9.22;74.87;98460.81;5080619;28;20461;-85
2023/01/07 00:34:28;;;;;;;5.20;4.70;;;9.30;85.00;;;8.95;75.08;98425.56;5093587;28;20459;-84
2023/01/07 00:37:48;;;;;;;4.67;3.60;;;9.20;85.10;;;9.27;74.75;98460.25;5110125;28;20718;-86
2023/01/07 00:39:45;;;;;;;4.50;3.73;;;9.20;85.50;;;9.16;74.31;98434.63;5110405;28;20500;-84
2023/01/07 00:44:57;;;;;;;4.30;3.90;;;9.20;85.40;;;9.36;74.09;98450.94;5068387;28;20457;-84
2023/01/07 00:47:26;;;;;;;4.17;3.37;;;9.30;85.00;;;9.16;74.68;98453.50;5087698;28;20531;-83
2023/01/07 00:49:53;;;;;;;2.97;2.57;;;9.20;84.80;;;9.18;73.94;98454.16;5088687;28;20460;-82
2023/01/07 00:52:21;;;;;;;3.17;2.87;;;9.20;85.00;;;9.18;74.50;98444.19;5069530;28;20828;-81
2023/01/07 00:54:49;;;;;;;4.37;3.10;;;9.20;85.40;;;8.85;73.84;98373.84;5088639;28;20454;-80
2023/01/07 00:57:17;;;;;;;4.10;3.80;;;9.30;84.80;;;8.91;74.46;98410.81;5072142;28;20507;-80
2023/01/07 00:59:44;;;;;;;3.23;2.93;;;9.20;85.20;;;9.24;73.81;98449.81;5065175;28;20867;-81
2023/01/07 01:02:12;;;;;;;3.60;3.00;;;9.20;85.50;;;9.23;74.19;98446.31;5089646;28;20461;-80
2023/01/07 01:04:39;;;;;;;3.47;3.10;;;9.20;85.50;;;9.01;74.54;98411.28;5073945;28;20459;-80
2023/01/07 01:07:06;;;;;;;4.03;3.10;;;9.20;85.30;;;9.15;75.32;98438.34;5088887;28;20460;-80
2023/01/07 01:09:33;;;;;;;4.10;3.80;;;9.30;85.10;;;9.25;74.86;98446.09;5069672;28;20484;-81
2023/01/07 01:12:02;;;;;;;7.67;4.40;;;9.30;85.40;;;9.15;75.37;98447.28;5070239;28;20517;-82
2023/01/07 01:14:29;;;;;;;4.40;3.60;;;9.20;85.40;;;9.14;75.40;98425.91;5089466;28;20480;-82
2023/01/07 01:17:00;;;;;;;5.33;4.57;;;9.30;85.70;;;9.30;74.92;98441.78;5080643;28;20455;-81
2023/01/07 01:19:27;;;;;;;4.20;3.70;;;9.30;85.90;;;9.32;74.27;98439.72;5085797;28;20450;-83
2023/01/07 01:21:55;;;;;;;4.10;3.70;;;9.30;85.50;;;8.85;74.38;98379.25;5074983;28;20955;-81
2023/01/07 01:24:22;;;;;;;4.10;3.70;;;9.30;85.30;;;9.43;74.22;98445.59;5063486;28;20510;-83
2023/01/07 01:26:50;;;;;;;3.77;3.47;;;9.30;85.20;;;9.43;73.67;98441.06;5092878;28;20476;-83
2023/01/07 01:29:18;;;;;;;3.60;3.27;;;9.40;85.20;;;9.21;74.18;98416.03;5091057;28;20933;-83
2023/01/07 01:31:47;;;;;;;4.13;3.73;;;9.40;85.60;;;9.38;74.80;98448.06;5070909;28;20454;-83
2023/01/07 01:34:14;;;;;;;4.60;4.20;;;9.30;85.50;;;9.35;74.61;98444.75;5087892;28;20477;-82
2023/01/07 01:36:43;;;;;;;4.40;3.47;;;9.30;85.80;;;9.31;74.61;98445.31;5073026;28;20464;-85
2023/01/07 01:39:10;;;;;;;3.70;3.40;;;9.30;85.90;;;9.36;74.61;98440.16;5075604;28;20457;-82
2023/01/07 01:41:37;;;;;;;5.00;3.53;;;9.20;85.80;;;9.30;73.86;98427.47;5070963;28;20460;-83
2023/01/07 01:44:50;;;;;;;4.37;3.93;;;9.30;85.80;;;9.34;74.71;98437.69;5082419;28;20831;-81
2023/01/07 01:47:32;;;;;;;4.50;4.10;;;9.30;85.70;;;9.05;75.33;98422.53;5093831;28;20466;-82
2023/01/07 01:50:09;;;;;;;4.67;4.00;;;9.20;85.70;;;8.86;75.36;98408.69;5075214;28;20451;-82
2023/01/07 01:52:43;;;;;;;5.90;4.30;;;9.20;86.00;;;8.91;75.08;98376.59;5083888;28;20468;-82
2023/01/07 01:55:14;;;;;;;4.60;4.20;;;9.20;86.20;;;8.93;75.42;98397.97;5077558;28;20446;-83
2023/01/07 01:57:42;;;;;;;3.60;3.20;;;9.20;86.10;;;9.04;75.70;98428.94;5091632;28;20476;-83
2023/01/07 02:00:12;;;;;;;3.70;3.40;;;9.20;86.40;;;9.19;75.69;98434.25;5075007;28;20457;-84
2023/01/07 02:02:45;;;;;;;4.77;4.30;;;9.10;86.60;;;9.24;75.35;98426.41;5095194;28;20474;-83
2023/01/07 02:05:12;;;;;;;3.77;3.43;;;9.10;86.90;;;9.01;75.54;98384.34;5076961;28;20958;-84
2023/01/07 02:07:40;;;;;;;4.80;4.17;;;9.10;87.00;;;9.31;75.23;98413.78;5103635;28;20477;-84
2023/01/07 02:10:17;;;;;;;3.57;3.23;;;9.20;87.00;;;9.38;75.50;98421.09;5093640;28;20797;-83
2023/01/07 02:13:13;;;;;;;4.20;3.80;;;9.20;86.80;;;9.19;75.10;98397.34;5091333;28;20460;-84
2023/01/07 02:15:51;;;;;;;4.87;4.30;;;9.20;86.80;;;9.39;75.52;98410.09;5099325;28;20487;-84
2023/01/07 02:18:39;;;;;;;7.07;4.40;;;9.30;86.80;;;9.28;75.71;98418.75;5080747;28;20454;-82
2023/01/07 02:21:23;;;;;;;5.30;4.40;;;9.20;86.70;;;9.09;76.08;98422.97;5104180;28;20463;-83
2023/01/07 02:24:45;;;;;;;4.23;3.80;;;9.20;87.10;;;8.88;76.54;98390.47;5112332;28;20450;-83
2023/01/07 02:28:01;;;;;;;4.00;3.70;;;9.20;86.60;;;8.81;76.96;98400.38;5086716;28;20469;-84
2023/01/07 02:31:19;;;;;;;4.30;3.70;;;9.20;87.10;;;8.81;77.06;98402.22;5088176;28;20449;-86
2023/01/07 02:33:55;;;;;;;4.20;3.70;;;9.00;87.60;;;8.71;77.30;98379.13;5074051;28;20453;-86
2023/01/07 02:36:48;;;;;;;4.13;3.67;;;9.00;88.00;;;8.87;77.55;98404.13;5058289;28;20518;-85
2023/01/07 02:39:31;;;;;;;4.53;3.77;;;9.00;88.70;;;8.79;77.80;98391.63;5089702;28;20478;-88
2023/01/07 02:42:01;;;;;;;4.80;4.00;;;8.90;89.10;;;8.59;77.95;98372.63;5097276;28;20484;-87
2023/01/07 02:44:38;;;;;;;4.30;3.90;;;8.90;89.40;;;8.79;78.25;98407.81;5075896;28;20453;-85
2023/01/07 02:47:12;;;;;;;4.40;4.00;;;8.80;90.00;;;8.66;79.05;98400.44;5101094;28;20473;-86
2023/01/07 02:49:41;;;;;;;4.30;3.90;;;8.80;90.20;;;8.66;78.93;98394.25;5091927;28;20521;-86
2023/01/07 02:52:23;;;;;;;4.60;3.93;;;8.80;90.20;;;8.02;78.96;98300.63;5077569;28;20443;-87
2023/01/07 02:54:57;;;;;;;4.47;3.70;;;8.80;90.50;;;8.71;78.73;98379.13;5096115;28;20487;-85
2023/01/07 02:58:11;;;;;;;3.63;3.33;;;8.80;90.40;;;8.60;78.58;98361.66;5095800;28;20453;-85
2023/01/07 03:01:16;;;;;;;3.70;3.40;;;8.80;90.60;;;8.55;79.31;98374.03;5085942;28;20486;-86
2023/01/07 03:04:09;;;;;;;3.80;3.50;;;8.80;90.60;;;8.77;78.13;98373.00;5092023;28;20450;-83
2023/01/07 03:06:58;;;;;;;3.80;3.50;;;8.80;90.40;;;8.66;78.39;98353.84;5073156;28;20499;-83
2023/01/07 03:09:36;;;;;;;4.77;3.90;;;8.90;90.00;;;8.68;79.41;98362.56;5078675;28;20954;-84
2023/01/07 03:12:13;;;;;;;4.70;4.20;;;8.90;90.10;;;8.39;79.54;98354.38;5090547;28;20461;-83
2023/01/07 03:14:46;;;;;;;4.57;3.70;;;8.90;90.40;;;8.30;79.51;98329.44;5094544;28;20464;-83
2023/01/07 03:17:19;;;;;;;4.40;4.00;;;8.80;90.60;;;8.30;80.42;98336.72;5090295;28;20450;-83
2023/01/07 03:19:51;;;;;;;3.90;3.40;;;8.70;90.90;;;8.34;80.55;98367.59;5074654;28;20442;-86
2023/01/07 03:22:24;;;;;;;3.40;3.10;;;8.70;91.10;;;8.26;80.33;98349.72;5092395;28;20476;-82
2023/01/07 03:24:54;;;;;;;3.77;3.33;;;8.60;91.30;;;7.84;81.17;98297.53;5084489;28;20478;-84
2023/01/07 03:27:23;;;;;;;3.97;3.57;;;8.60;91.50;;;8.19;81.11;98336.19;5106027;28;20478;-82
2023/01/07 03:29:53;;;;;;;4.97;3.90;;;8.60;91.80;;;8.23;80.80;98345.53;5098269;28;20455;-83
2023/01/07 03:32:26;;;;;;;4.00;3.70;;;8.50;91.90;;;8.32;81.04;98353.50;5076715;28;20507;-82
2023/01/07 03:34:53;;;;;;;4.30;3.90;;;8.50;91.90;;;8.30;81.73;98350.19;5096030;28;20797;-83
2023/01/07 03:37:25;;;;;;;3.83;3.53;;;8.50;91.90;;;8.49;80.55;98348.66;5094423;28;20453;-83
2023/01/07 03:39:53;;;;;;;4.00;3.70;;;8.60;91.80;;;7.78;80.87;98227.34;5091987;28;20457;-83
2023/01/07 03:42:39;;;;;;;4.00;3.60;;;8.60;91.80;;;8.37;80.24;98329.53;5068799;28;20447;-85
2023/01/07 03:45:12;;;;;;;3.97;3.67;;;8.60;91.70;;;8.43;80.72;98350.31;5075822;28;20438;-85
2023/01/07 03:47:44;;;;;;;3.83;3.47;;;8.60;91.80;;;8.37;81.22;98351.06;5072888;28;20501;-85
2023/01/07 03:50:12;;;;;;;5.00;4.13;;;8.60;91.90;;;8.36;80.71;98350.25;5072639;28;20454;-84
2023/01/07 03:52:41;;;;;;;3.63;3.33;;;8.50;91.80;;;7.99;81.46;98300.19;5069949;28;20451;-85
2023/01/07 03:55:10;;;;;;;3.67;3.37;;;8.50;91.80;;;8.28;81.50;98342.28;5060481;28;20483;-83
2023/01/07 03:57:38;;;;;;;3.80;3.50;;;8.50;92.20;;;8.35;81.30;98342.34;5092744;28;20924;-84
2023/01/07 04:00:07;;;;;;;3.57;3.27;;;8.50;92.00;;;8.31;81.30;98331.13;5103664;28;20991;-85
2023/01/07 04:02:35;;;;;;;4.00;3.50;;;8.50;92.10;;;8.42;81.00;98332.47;5093518;28;20437;-85
2023/01/07 04:05:02;;;;;;;4.00;3.50;;;8.60;91.70;;;8.03;81.76;98301.47;5077359;28;20440;-85
2023/01/07 04:07:30;;;;;;;4.83;3.50;;;8.50;92.00;;;8.34;81.14;98319.13;5086655;28;20466;-82
2023/01/07 04:09:59;;;;;;;3.27;3.07;;;8.50;92.20;;;8.05;81.91;98299.41;5089173;28;20450;-81
2023/01/07 04:12:26;;;;;;;4.27;3.67;;;8.50;92.30;;;8.13;80.93;98302.00;5100128;28;20454;-86
2023/01/07 04:14:54;;;;;;;3.90;3.60;;;8.50;92.10;;;8.21;80.45;98279.50;5101847;28;20778;-84
2023/01/07 04:17:21;;;;;;;3.73;3.43;;;8.50;92.10;;;8.31;80.85;98292.63;5080822;28;21008;-85
2023/01/07 04:19:50;;;;;;;4.97;3.97;;;8.50;92.30;;;8.25;81.57;98325.66;5070821;28;20508;-85
2023/01/07 04:22:18;;;;;;;4.73;3.87;;;8.50;92.00;;;8.13;81.24;98279.59;5081151;28;20425;-85
2023/01/07 04:24:45;;;;;;;3.87;3.57;;;8.50;92.30;;;8.22;81.02;98281.97;5083153;28;20452;-86
2023/01/07 04:27:14;;;;;;;4.50;3.40;;;8.50;92.00;;;8.00;80.92;98248.03;5072669;28;20472;-86
2023/01/07 04:29:41;;;;;;;3.67;3.33;;;8.50;92.00;;;7.87;82.00;98235.28;5085819;28;20444;-85
2023/01/07 04:32:09;;;;;;;4.33;3.47;;;8.50;92.10;;;8.05;80.85;98238.38;5094672;28;20450;-86
2023/01/07 04:34:36;;;;;;;4.23;3.77;;;8.50;92.30;;;8.30;81.08;98264.03;5080356;28;20772;-85
2023/01/07 04:37:04;;;;;;;3.80;3.50;;;8.60;92.30;;;8.41;80.38;98281.50;5074838;28;20440;-85
2023/01/07 04:39:31;;;;;;;4.10;3.53;;;8.60;91.90;;;8.16;80.80;98242.38;5095944;28;20852;-86
2023/01/07 04:41:58;;;;;;;4.40;4.00;;;8.60;92.20;;;8.08;80.71;98207.53;5092831;28;20459;-86
2023/01/07 04:44:28;;;;;;;3.93;3.53;;;8.60;92.10;;;8.68;79.96;98282.56;5072663;28;20808;-87
2023/01/07 04:46:56;;;;;;;4.43;4.03;;;8.70;91.80;;;7.99;80.33;98193.38;5077542;28;20491;-87
2023/01/07 04:49:23;;;;;;;4.03;3.70;;;8.70;91.80;;;8.06;80.27;98214.97;5070763;28;20475;-86
2023/01/07 04:51:50;;;;;;;4.10;3.70;;;8.70;91.70;;;8.57;79.87;98285.78;5098036;28;20452;-86
2023/01/07 04:54:18;;;;;;;5.23;3.63;;;8.70;91.70;;;8.35;80.67;98283.13;5061703;28;20858;-86
2023/01/07 04:56:45;;;;;;;4.37;3.97;;;8.60;91.70;;;8.68;80.05;98277.16;5075183;28;20803;-82
2023/01/07 04:59:13;;;;;;;3.83;3.53;;;8.70;91.90;;;8.60;80.24;98282.72;5084784;28;20861;-83
2023/01/07 05:01:42;;;;;;;4.93;4.37;;;8.60;91.80;;;8.38;80.44;98250.41;5096556;28;20773;-83
2023/01/07 05:04:11;;;;;;;4.30;4.00;;;8.70;91.50;;;8.66;79.74;98270.34;5091232;28;20452;-83
2023/01/07 05:06:39;;;;;;;4.50;4.20;;;8.70;91.80;;;8.64;80.41;98262.44;5074816;28;20542;-85
2023/01/07 05:09:06;;;;;;;4.60;4.03;;;8.70;91.50;;;8.28;80.95;98250.75;5084820;28;20562;-83
2023/01/07 05:11:34;;;;;;;4.70;4.27;;;8.60;91.50;;;8.58;80.25;98257.84;5092703;28;20444;-83
2023/01/07 05:14:04;;;;;;;4.77;4.37;;;8.60;92.10;;;8.29;80.70;98220.09;5094326;28;20538;-83
2023/01/07 05:16:32;;;;;;;4.93;4.30;;;8.60;92.00;;;8.30;80.61;98216.38;5089402;28;20480;-83
2023/01/07 05:19:01;;;;;;;4.50;4.10;;;8.60;91.90;;;8.13;80.87;98202.41;5073165;28;20528;-83
2023/01/07 05:21:28;;;;;;;5.10;4.70;;;8.60;91.90;;;8.32;81.50;98241.25;5093275;28;20949;-86
2023/01/07 05:23:57;;;;;;;5.37;4.50;;;8.60;91.90;;;8.32;81.99;98243.94;5060827;28;20965;-86
2023/01/07 05:26:26;;;;;;;5.73;4.80;;;8.60;92.20;;;8.23;81.12;98210.94;5086788;28;20552;-85
2023/01/07 05:28:54;;;;;;;6.30;4.93;;;8.60;92.40;;;8.53;80.96;98241.44;5092195;28;20483;-85
2023/01/07 05:31:21;;;;;;;5.60;4.90;;;8.60;92.20;;;8.56;80.65;98238.34;5092219;28;20441;-86
2023/01/07 05:33:50;;;;;;;6.10;5.13;;;8.70;92.10;;;8.42;80.37;98224.78;5073253;28;20786;-84
2023/01/07 05:36:21;;;;;;;6.80;4.90;;;8.80;91.80;;;8.33;80.39;98199.03;5091282;28;20477;-85
2023/01/07 05:38:49;;;;;;;4.70;4.30;;;8.70;91.70;;;8.02;81.33;98184.09;5093837;28;20458;-85
2023/01/07 05:41:16;;;;;;;4.53;4.13;;;8.60;92.00;;;8.38;81.12;98218.09;5081643;28;20536;-85
2023/01/07 05:43:44;;;;;;;6.63;4.73;;;8.60;92.10;;;8.17;81.60;98206.38;5097547;28;21066;-85
2023/01/07 05:46:11;;;;;;;5.27;4.53;;;8.60;92.50;;;8.50;81.23;98235.41;5083661;28;20469;-84
2023/01/07 05:48:39;;;;;;;5.80;4.67;;;8.60;92.60;;;8.05;81.22;98171.09;5093775;28;20821;-83
2023/01/07 05:51:06;;;;;;;5.03;4.30;;;8.60;92.50;;;8.11;81.78;98209.81;5091885;28;20444;-82
2023/01/07 05:53:36;;;;;;;5.57;5.00;;;8.50;92.50;;;8.44;81.57;98230.78;5085573;28;20542;-82
2023/01/07 05:56:04;;;;;;;4.70;4.30;;;8.60;92.60;;;8.35;81.45;98208.56;5089353;28;20448;-81
2023/01/07 05:58:32;;;;;;;4.40;3.97;;;8.60;92.40;;;8.29;81.24;98216.59;5058980;28;20513;-81
2023/01/07 06:00:59;;;;;;;4.73;3.93;;;8.60;92.40;;;8.48;81.40;98229.38;5097747;28;20576;-81
2023/01/07 06:03:26;;;;;;;4.27;3.87;;;8.50;92.60;;;7.93;81.76;98161.88;5092042;28;20462;-82
2023/01/07 06:05:53;;;;;;;4.20;3.80;;;8.50;92.50;;;8.48;81.32;98228.53;5097947;28;21271;-82
2023/01/07 06:08:20;;;;;;;5.40;4.90;;;8.50;92.60;;;8.41;81.94;98215.00;5075434;28;20470;-82
2023/01/07 06:10:49;;;;;;;5.00;4.17;;;8.50;93.20;;;8.26;81.71;98208.91;5073769;28;20867;-82
2023/01/07 06:13:17;;;;;;;4.67;4.27;;;8.50;92.80;;;8.40;81.30;98216.03;5073518;28;20463;-83
2023/01/07 06:15:44;;;;;;;5.07;4.23;;;8.50;92.70;;;8.30;81.67;98210.19;5112965;28;20431;-84
2023/01/07 06:18:11;;;;;;;5.37;4.63;;;8.50;92.60;;;8.27;82.61;98221.34;5112775;28;20454;-80
2023/01/07 06:20:39;;;;;;;4.63;4.23;;;8.40;93.00;;;8.25;82.05;98207.22;5094913;28;20461;-77
2023/01/07 06:23:06;;;;;;;4.43;4.03;;;8.50;92.80;;;8.36;82.31;98220.16;5083325;28;21089;-79
2023/01/07 06:25:33;;;;;;;4.90;4.23;;;8.50;93.00;;;8.47;81.83;98211.53;5068787;28;20447;-77
2023/01/07 06:28:02;;;;;;;6.23;4.47;;;8.50;92.80;;;8.40;81.00;98205.28;5094728;28;20570;-76
2023/01/07 06:30:29;;;;;;;4.43;4.03;;;8.60;92.50;;;8.33;82.25;98205.22;5072237;28;20530;-72
2023/01/07 06:32:56;;;;;;;4.30;3.83;;;8.50;92.50;;;8.27;82.80;98211.41;5063987;28;20554;-73
2023/01/07 06:35:23;;;;;;;5.17;4.63;;;8.50;92.80;;;8.31;82.30;98212.66;5087963;28;20459;-74
2023/01/07 06:37:50;;;;;;;4.10;3.70;;;8.50;92.70;;;8.16;82.37;98210.09;5090449;28;20599;-73
2023/01/07 06:40:18;;;;;;;5.10;4.10;;;8.50;92.70;;;8.08;82.86;98203.00;5079535;28;20528;-74
2023/01/07 06:42:45;;;;;;;4.90;4.40;;;8.40;92.80;;;8.29;82.65;98197.75;5089273;28;20572;-74
2023/01/07 06:45:14;;;;;;;4.40;4.00;;;8.50;93.00;;;8.30;81.81;98194.03;5082083;28;20466;-73
2023/01/07 06:47:41;;;;;;;5.27;4.77;;;8.50;92.90;;;8.32;82.21;98192.78;5088440;28;20572;-72
2023/01/07 06:50:09;;;;;;;5.37;4.37;;;8.50;92.60;;;8.16;82.23;98188.56;5069430;28;20500;-73
2023/01/07 06:52:37;;;;;;;9.37;4.87;;;8.50;92.60;;;8.22;82.65;98190.44;5083728;28;20537;-74
2023/01/07 06:55:05;;;;;;;5.47;4.80;;;8.40;93.10;;;8.39;81.42;98195.53;5091414;28;20462;-74
2023/01/07 06:57:32;;;;;;;4.80;4.30;;;8.50;93.20;;;8.45;81.46;98191.22;5084509;28;20464;-73
2023/01/07 07:00:00;;;;;;;5.50;4.80;;;8.50;92.60;;;8.39;81.80;98187.44;5087308;28;20454;-73
2023/01/07 07:02:29;;;;;;;5.50;4.70;;;8.50;93.00;;;8.51;80.97;98190.47;5073877;28;20489;-73
2023/01/07 07:04:56;;;;;;;5.63;5.13;;;8.60;92.70;;;8.42;81.29;98184.38;5077712;28;20453;-77
2023/01/07 07:07:24;;;;;;;4.83;4.43;;;8.60;92.50;;;8.51;81.55;98185.09;5067065;28;20458;-76
2023/01/07 07:09:51;;;;;;;5.20;4.77;;;8.60;92.80;;;8.45;81.84;98185.84;5089779;28;21041;-76
2023/01/07 07:12:18;;;;;;;5.80;5.20;;;8.60;92.90;;;8.71;80.11;98192.44;5089183;28;20947;-77
2023/01/07 07:14:45;;;;;;;5.20;4.80;;;8.60;92.60;;;8.57;81.34;98180.75;5081232;28;20458;-77
2023/01/07 07:17:13;;;;;;;5.40;4.90;;;8.70;92.40;;;8.47;81.69;98184.63;5072383;28;20458;-75
2023/01/07 07:19:41;;;;;;;5.30;4.80;;;8.60;92.60;;;8.30;82.09;98173.31;5085769;28;20569;-75
2023/01/07 07:22:09;;;;;;;6.40;5.80;;;8.60;92.60;;;8.28;82.14;98180.75;5090948;28;21009;-75
2023/01/07 07:24:36;;;;;;;6.40;5.53;;;8.50;93.10;;;8.42;81.57;98179.00;5087938;28;20465;-76
2023/01/07 07:27:03;;;;;;;5.37;4.87;;;8.50;93.20;;;8.31;82.93;98179.53;5088264;28;20508;-76
2023/01/07 07:29:31;;;;;;;7.13;5.27;;;8.50;93.30;;;8.27;82.40;98176.41;5086501;28;21232;-76
2023/01/07 07:31:58;;;;;;;6.23;5.40;;;8.50;93.40;;;8.49;82.15;98166.41;5083726;28;20449;-77
2023/01/07 07:34:25;;;;;;;5.70;5.10;;;8.60;93.30;;;8.62;81.50;98170.22;5084452;28;20463;-77
2023/01/07 07:36:54;;;;;;;6.30;5.63;;;8.60;93.00;;;8.52;81.49;98170.59;5083996;28;21006;-76
2023/01/07 07:39:21;;;;;;;6.23;5.60;;;8.60;92.60;;;8.68;80.71;98164.03;5080306;28;20497;-76
2023/01/07 07:41:48;;;;;;;8.40;5.60;;;8.70;92.60;;;8.53;81.54;98166.03;5082796;28;20445;-76
2023/01/07 07:44:16;;;;;;;10.27;5.83;;;8.60;92.50;;;8.61;80.90;98168.56;5067729;28;21057;-77
2023/01/07 07:46:43;;;;;;;6.63;5.93;;;8.70;92.50;;;8.63;80.98;98161.13;5084121;28;20453;-76
2023/01/07 07:49:11;;;;;;;8.70;6.77;;;8.70;92.50;;;8.81;81.30;98163.28;5087539;28;20478;-78
2023/01/07 07:51:38;;;;;;;7.50;6.70;;;8.80;92.60;;;8.80;80.73;98161.63;5081762;28;20449;-76
2023/01/07 07:54:06;;;;;;;7.17;6.47;;;8.90;91.90;;;8.74;82.06;98157.88;5066199;28;20454;-76
2023/01/07 07:56:33;;;;;;;9.83;7.07;;;8.80;92.50;;;8.85;80.77;98158.31;5082424;28;20946;-76
2023/01/07 07:59:00;;;;;;;10.87;7.70;;;8.90;91.70;;;8.94;80.87;98154.41;5067469;28;20582;-77
2023/01/07 08:01:28;;;;;;;7.60;6.80;;;8.90;92.10;;;8.75;80.78;98154.13;5067157;28;20455;-76
2023/01/07 08:03:55;;;;;;;7.03;6.33;;;8.90;91.80;;;8.62;80.78;98143.28;5076316;28;20449;-77
2023/01/07 08:06:22;;;;;;;6.97;6.27;;;8.90;91.70;;;8.47;81.20;98140.69;5089280;28;20508;-76
2023/01/07 08:08:49;;;;;;;7.00;6.20;;;8.80;92.10;;;8.70;80.79;98148.50;5082697;28;20852;-77
2023/01/07 08:11:18;;;;;;;7.53;6.83;;;8.80;92.10;;;8.70;80.72;98142.28;5070240;28;20787;-76
2023/01/07 08:13:45;;;;;;;8.63;7.20;;;8.80;91.80;;;8.74;81.06;98146.25;5081065;28;21120;-76
2023/01/07 08:16:13;;;;;;;9.10;6.40;;;8.90;92.00;;;8.69;80.55;98144.16;5064292;28;20509;-75
2023/01/07 08:18:40;;;;;;;8.40;6.60;;;8.90;91.60;;;8.85;80.08;98142.13;5085911;28;20452;-78
2023/01/07 08:21:07;;;;;;;7.33;6.63;;;9.00;91.90;;;8.93;80.18;98139.28;5074743;28;20469;-77
2023/01/07 08:23:34;;;;;;;6.93;6.27;;;9.00;91.80;;;8.90;79.99;98134.31;5084214;28;21229;-78
2023/01/07 08:26:03;;;;;;;7.07;6.37;;;9.00;91.50;;;9.12;79.62;98131.47;5071193;28;20460;-78
2023/01/07 08:28:32;;;;;;;7.63;6.93;;;9.10;91.40;;;9.03;79.92;98128.97;5104675;28;20467;-76
2023/01/07 08:31:02;;;;;;;9.10;7.70;;;9.10;91.30;;;8.70;79.87;98105.41;5089217;28;20456;-76
2023/01/07 08:33:33;;;;;;;7.80;7.13;;;9.00;91.10;;;8.93;79.71;98117.72;5100505;28;20457;-76
2023/01/07 08:36:00;;;;;;;7.60;6.77;;;9.10;91.00;;;9.02;79.97;98118.38;5084528;28;20545;-78
2023/01/07 08:38:30;;;;;;;7.70;6.90;;;9.00;91.30;;;9.00;79.82;98115.88;5084449;28;20534;-78
2023/01/07 08:40:58;;;;;;;6.63;6.03;;;9.00;91.10;;;8.88;79.59;98120.22;5086164;28;21212;-77
2023/01/07 08:43:25;;;;;;;8.50;6.30;;;9.00;91.00;;;9.04;79.23;98121.69;5072648;28;20452;-79
2023/01/07 08:45:54;;;;;;;7.93;7.07;;;9.10;90.90;;;8.77;79.26;98087.41;5090281;28;20459;-79
2023/01/07 08:48:21;;;;;;;7.13;6.53;;;9.10;90.60;;;9.15;78.49;98109.47;5072645;28;20462;-78
2023/01/07 08:50:51;;;;;;;7.23;6.20;;;9.20;90.60;;;9.04;78.43;98114.44;5083089;28;20458;-79
2023/01/07 08:53:19;;;;;;;6.80;6.20;;;9.20;90.30;;;9.25;78.20;98104.53;5061443;28;20466;-78
2023/01/07 08:55:46;;;;;;;6.77;6.20;;;9.30;90.30;;;9.28;77.19;98108.69;5065287;28;20530;-73
2023/01/07 08:58:13;;;;;;;6.63;6.03;;;9.30;89.90;;;9.34;77.37;98097.91;5087911;28;20511;-73
2023/01/07 09:00:41;;;;;;;6.53;5.93;;;9.40;89.70;;;9.31;77.03;98095.63;5089638;28;20455;-72
2023/01/07 09:03:09;;;;;;;6.37;5.77;;;9.40;89.10;;;9.24;76.88;98096.63;5065778;28;21010;-72
2023/01/07 09:05:37;;;;;;;6.80;6.20;;;9.30;88.80;;;9.37;76.77;98096.66;5080337;28;20546;-72
2023/01/07 09:08:04;;;;;;;7.43;6.77;;;9.40;88.60;;;9.33;75.88;98100.81;5081144;28;20485;-72
2023/01/07 09:10:31;;;;;;;6.20;5.60;;;9.40;87.70;;;9.33;75.13;98090.03;5086265;28;20478;-74
2023/01/07 09:12:59;;;;;;;6.27;5.53;;;9.40;87.20;;;9.34;75.09;98094.38;5077188;28;20529;-73
2023/01/07 09:15:26;;;;;;;6.97;5.87;;;9.50;86.20;;;9.56;74.62;98089.63;5058724;28;20541;-74
2023/01/07 09:17:53;;;;;;;5.97;5.47;;;9.50;86.50;;;9.66;74.14;98088.41;5088051;28;20463;-74
2023/01/07 09:20:21;;;;;;;7.03;5.87;;;9.60;85.90;;;9.34;74.54;98081.75;5088707;28;20553;-72
2023/01/07 09:22:48;;;;;;;5.30;4.90;;;9.60;85.50;;;9.29;73.88;98092.28;5066622;28;21140;-73
2023/01/07 09:25:16;;;;;;;6.00;5.50;;;9.50;85.10;;;9.37;73.94;98080.47;5089199;28;20442;-72
2023/01/07 09:27:44;;;;;;;5.70;5.20;;;9.60;85.30;;;9.52;73.23;98093.78;5084312;28;20482;-72
2023/01/07 09:30:12;;;;;;;8.10;5.10;;;9.60;85.00;;;9.66;73.59;98088.41;5084145;28;20508;-73
2023/01/07 09:32:40;;;;;;;6.93;5.83;;;9.70;85.30;;;9.46;73.95;98094.59;5067869;28;20895;-73
2023/01/07 09:35:08;;;;;;;5.13;4.73;;;9.70;85.10;;;9.77;72.47;98096.69;5075158;28;20467;-74
2023/01/07 09:37:37;;;;;;;5.57;5.07;;;9.80;84.70;;;9.88;72.00;98094.41;5071727;28;20458;-74
2023/01/07 09:40:07;;;;;;;5.80;5.20;;;9.90;84.30;;;9.67;71.62;98100.84;5078440;28;20459;-73
2023/01/07 09:42:46;;;;;;;5.80;5.00;;;9.80;83.70;;;9.61;72.11;98092.53;5089401;28;20459;-73
2023/01/07 09:45:19;;;;;;;6.50;5.50;;;9.70;83.40;;;9.83;71.09;98095.03;5060794;28;20466;-71
2023/01/07 09:47:50;;;;;;;4.60;4.20;;;9.90;83.40;;;9.75;70.32;98092.53;5088168;28;20463;-72
2023/01/07 09:50:30;;;;;;;4.17;3.87;;;9.90;82.40;;;9.84;69.81;98093.13;5043191;28;20840;-74
2023/01/07 09:53:05;;;;;;;5.10;4.13;;;9.90;82.20;;;9.58;70.78;98090.25;5086701;28;20468;-73
2023/01/07 09:55:35;;;;;;;4.60;4.10;;;9.80;82.00;;;9.77;69.81;98090.44;5077296;28;20474;-73
2023/01/07 09:58:03;;;;;;;5.10;4.60;;;9.90;81.90;;;9.87;69.37;98085.47;5084097;28;20454;-73
2023/01/07 10:00:34;;;;;;;4.63;4.13;;;9.90;81.70;;;10.05;69.26;98084.81;5084288;28;20530;-72
2023/01/07 10:03:23;;;;;;;4.73;4.33;;;10.00;80.90;;;10.17;70.53;98081.50;5075807;28;20462;-73
2023/01/07 10:06:08;;;;;;;3.83;3.53;;;10.10;82.30;;;9.87;68.22;98084.66;5080071;28;20933;-73
2023/01/07 10:08:50;;;;;;;3.53;3.23;;;10.10;79.50;;;9.91;67.64;98069.69;5073122;28;20502;-72
2023/01/07 10:11:29;;;;;;;3.50;3.20;;;10.00;79.30;;;9.95;67.69;98068.22;5087494;28;20554;-72
2023/01/07 10:14:20;;;;;;;4.27;3.87;;;10.10;79.00;;;10.09;67.26;98066.34;5062671;28;20492;-72
2023/01/07 10:16:55;;;;;;;3.77;3.47;;;10.10;78.80;;;10.11;67.57;98066.13;5083670;28;20503;-72
2023/01/07 10:19:30;;;;;;;3.13;2.93;;;10.20;78.70;;;10.01;67.45;98056.59;5081844;28;20445;-73
2023/01/07 10:22:02;;;;;;;3.80;3.50;;;10.20;78.60;;;10.03;66.33;98048.28;5094056;28;20455;-73
2023/01/07 10:24:36;;;;;;;3.67;3.37;;;10.20;78.40;;;9.75;67.31;98043.97;5095211;28;20544;-71
2023/01/07 10:27:12;;;;;;;3.40;3.10;;;10.10;78.30;;;9.91;66.96;98042.69;5085217;28;20450;-70
2023/01/07 10:29:44;;;;;;;3.20;2.90;;;10.10;78.30;;;9.84;66.84;98040.00;5070346;28;20481;-70
2023/01/07 10:32:15;;;;;;;8.57;3.47;;;10.10;78.30;;;9.97;66.62;98041.03;5093527;28;21212;-71
2023/01/07 10:34:46;;;;;;;3.17;2.90;;;10.10;78.10;;;10.20;65.76;98035.97;5088665;28;20460;-70
2023/01/07 10:37:23;;;;;;;3.00;2.80;;;10.20;78.30;;;10.27;65.84;98027.84;5080728;28;20459;-71
2023/01/07 10:40:06;;;;;;;3.53;3.23;;;10.40;77.80;;;10.66;64.67;98014.41;5089864;28;20960;-70
2023/01/07 10:42:39;;;;;;;3.73;3.43;;;10.60;77.40;;;10.61;64.73;98003.44;5093847;28;20992;-71
2023/01/07 10:45:44;;;;;;;4.07;3.77;;;10.60;77.30;;;10.27;65.26;98000.84;5088574;28;20488;-69
2023/01/07 10:48:48;;;;;;;3.70;3.40;;;10.50;76.80;;;10.70;64.69;97995.91;5088479;28;20487;-69
2023/01/07 10:51:43;;;;;;;3.63;3.33;;;10.70;77.00;;;10.73;63.73;97996.31;5080695;28;20477;-71
2023/01/07 10:54:36;;;;;;;3.43;3.10;;;10.90;76.50;;;10.79;63.45;97986.50;5090134;28;21027;-69